Time;durP1;ratioP1;P1;durP2;ratioP2;P2;SDS_P1;SDS_P2;PMS_P1;PMS_P2;Temp;Humidity;BMP_temperature;BMP_pressure;BME280_temperature;BME280_humidity;BME280_pressure;Samples;Min_cycle;Max_cycle;Signal;HPM_P1;HPM_P2
2023/09/28 00:01:38;;;;;;;8.70;3.50;;;15.40;99.90;;;;;;6271628;22;20383;-66
2023/09/28 00:04:06;;;;;;;9.45;3.60;;;15.30;1.00;;;;;;6271359;22;20352;-66
2023/09/28 00:06:31;;;;;;;9.35;3.97;;;15.10;1.00;;;;;;6270942;22;20445;-66
2023/09/28 00:08:57;;;;;;;10.50;4.00;;;15.10;1.00;;;;;;6271129;22;20492;-66
2023/09/28 00:11:23;;;;;;;8.07;3.22;;;15.10;1.00;;;;;;6271351;22;20435;-65
2023/09/28 00:13:48;;;;;;;10.33;4.33;;;15.10;1.00;;;;;;6271247;22;20828;-65
2023/09/28 00:16:14;;;;;;;10.85;3.75;;;15.00;1.00;;;;;;6271588;22;20813;-65
2023/09/28 00:18:39;;;;;;;8.80;3.85;;;14.90;1.00;;;;;;6271112;22;20356;-65
2023/09/28 00:21:06;;;;;;;10.07;3.93;;;14.90;1.00;;;;;;6271335;22;20392;-65
2023/09/28 00:23:32;;;;;;;10.70;4.45;;;14.90;1.00;;;;;;6271089;22;20387;-65
2023/09/28 00:25:58;;;;;;;7.37;3.53;;;14.80;1.00;;;;;;6271466;22;20388;-66
2023/09/28 00:28:23;;;;;;;8.98;4.00;;;14.80;1.00;;;;;;6271230;22;20380;-66
2023/09/28 00:30:49;;;;;;;9.88;4.28;;;14.90;1.00;;;;;;6271289;22;20677;-66
2023/09/28 00:33:15;;;;;;;15.00;5.50;;;14.90;1.00;;;;;;6271926;22;20356;-66
2023/09/28 00:35:40;;;;;;;7.78;3.60;;;15.00;1.00;;;;;;6271284;22;20365;-66
2023/09/28 00:38:07;;;;;;;10.60;4.20;;;15.20;1.00;;;;;;6270985;22;20776;-66
2023/09/28 00:40:32;;;;;;;9.13;3.65;;;15.30;1.00;;;;;;6271608;22;20415;-66
2023/09/28 00:42:59;;;;;;;10.02;4.05;;;15.30;1.00;;;;;;6271416;22;20380;-66
2023/09/28 00:45:27;;;;;;;8.60;3.53;;;15.20;1.00;;;;;;6271327;22;20364;-65
2023/09/28 00:48:03;;;;;;;8.77;3.50;;;15.20;1.00;;;;;;6270812;22;20392;-65
2023/09/28 00:50:32;;;;;;;10.10;4.13;;;15.20;1.00;;;;;;6271152;22;20372;-66
2023/09/28 00:53:04;;;;;;;8.43;3.83;;;15.30;1.00;;;;;;6271050;22;20351;-66
2023/09/28 00:55:30;;;;;;;8.85;3.78;;;15.40;1.00;;;;;;6271797;22;20668;-66
2023/09/28 00:58:01;;;;;;;10.60;4.10;;;15.40;1.00;;;;;;6271101;22;20376;-65
2023/09/28 01:00:31;;;;;;;10.02;3.85;;;15.40;1.00;;;;;;6269630;22;22442;-65
2023/09/28 01:02:59;;;;;;;7.90;3.58;;;15.50;1.00;;;;;;6271228;22;20781;-66
2023/09/28 01:05:30;;;;;;;9.70;3.95;;;15.60;1.00;;;;;;6271167;22;20368;-66
2023/09/28 01:08:07;;;;;;;8.23;3.30;;;15.50;1.00;;;;;;6271300;22;20365;-66
2023/09/28 01:10:35;;;;;;;9.48;3.80;;;15.60;1.00;;;;;;6271235;22;20380;-66
2023/09/28 01:13:11;;;;;;;8.38;3.53;;;15.50;99.90;;;;;;6243816;22;20719;-66
2023/09/28 01:15:41;;;;;;;11.60;4.80;;;15.50;1.00;;;;;;6270455;22;20360;-66
2023/09/28 01:18:15;;;;;;;9.70;3.60;;;15.60;99.90;;;;;;6271151;22;20813;-66
2023/09/28 01:20:43;;;;;;;9.45;3.50;;;15.50;99.90;;;;;;6271582;22;20903;-66
2023/09/28 01:23:09;;;;;;;10.15;3.53;;;15.40;1.00;;;;;;6270966;22;20391;-66
2023/09/28 01:25:36;;;;;;;8.00;3.22;;;15.50;1.00;;;;;;6271372;22;20743;-66
2023/09/28 01:31:23;;;;;;;8.77;3.60;;;15.60;99.90;;;;;;6270639;22;20409;-66
2023/09/28 01:33:49;;;;;;;7.60;3.20;;;15.60;99.90;;;;;;6271337;22;20435;-66
2023/09/28 01:36:15;;;;;;;7.40;3.40;;;15.50;99.90;;;;;;6272772;22;20390;-66
2023/09/28 01:39:00;;;;;;;8.85;3.20;;;15.50;99.90;;;;;;6271295;22;20367;-66
2023/09/28 01:41:26;;;;;;;8.30;3.70;;;15.50;99.90;;;;;;6270990;22;20434;-66
2023/09/28 01:43:51;;;;;;;8.60;3.60;;;15.60;99.90;;;;;;6271558;22;20700;-66
2023/09/28 01:46:17;;;;;;;13.30;4.10;;;15.70;99.90;;;;;;6270423;22;20747;-66
2023/09/28 01:48:42;;;;;;;8.30;3.57;;;15.60;99.90;;;;;;6271174;22;20349;-66
2023/09/28 01:51:08;;;;;;;13.53;3.90;;;15.70;99.90;;;;;;6244299;22;20368;-66
2023/09/28 01:53:33;;;;;;;12.50;3.78;;;15.60;99.90;;;;;;6270875;22;20443;-66
2023/09/28 01:56:01;;;;;;;11.18;3.33;;;15.60;99.90;;;;;;6271468;22;20364;-65
2023/09/28 01:58:26;;;;;;;10.50;4.50;;;15.50;99.90;;;;;;6271320;22;20747;-65
2023/09/28 02:00:52;;;;;;;11.77;4.60;;;15.50;99.90;;;;;;6243781;22;20360;-65
2023/09/28 02:03:17;;;;;;;9.50;4.20;;;15.60;1.00;;;;;;6271584;22;20355;-65
2023/09/28 02:05:43;;;;;;;11.70;3.80;;;15.60;99.90;;;;;;6271339;22;20443;-66
2023/09/28 02:08:09;;;;;;;9.27;3.45;;;15.70;99.90;;;;;;6270849;22;20368;-66
2023/09/28 02:10:35;;;;;;;11.23;4.20;;;15.70;99.90;;;;;;6271155;22;20386;-66
2023/09/28 02:13:00;;;;;;;8.05;3.60;;;15.70;99.90;;;;;;6270686;22;20664;-66
2023/09/28 02:15:26;;;;;;;8.33;3.30;;;15.60;99.90;;;;;;6270519;22;20438;-66
2023/09/28 02:17:52;;;;;;;8.70;3.40;;;15.40;1.00;;;;;;6270793;22;20824;-66
2023/09/28 02:20:22;;;;;;;8.10;3.58;;;15.30;1.00;;;;;;6271021;22;20494;-66
2023/09/28 02:22:50;;;;;;;8.10;3.55;;;15.40;1.00;;;;;;6270720;22;20450;-66
2023/09/28 02:25:18;;;;;;;13.60;4.20;;;15.30;1.00;;;;;;6271168;22;20357;-66
2023/09/28 02:27:45;;;;;;;10.30;3.60;;;15.30;1.00;;;;;;6244302;22;20372;-66
2023/09/28 02:30:12;;;;;;;7.70;3.08;;;15.40;1.00;;;;;;6271183;22;20360;-66
2023/09/28 02:32:44;;;;;;;8.37;3.10;;;15.40;1.00;;;;;;6270831;22;20422;-67
2023/09/28 02:35:11;;;;;;;22.92;3.33;;;15.50;1.00;;;;;;6270791;22;20455;-67
2023/09/28 02:37:37;;;;;;;8.18;3.25;;;15.50;1.00;;;;;;6270806;22;20638;-67
2023/09/28 02:40:06;;;;;;;9.33;3.40;;;15.40;1.00;;;;;;6270647;22;20375;-67
2023/09/28 02:42:33;;;;;;;8.20;3.40;;;15.40;1.00;;;;;;6270960;22;20380;-67
2023/09/28 02:44:59;;;;;;;8.23;3.15;;;15.40;1.00;;;;;;6270399;22;20422;-67
2023/09/28 02:47:24;;;;;;;9.00;3.17;;;15.40;1.00;;;;;;6270724;22;20368;-67
2023/09/28 02:49:51;;;;;;;7.00;2.80;;;15.50;99.90;;;;;;6270541;22;20357;-67
2023/09/28 02:52:17;;;;;;;8.00;3.35;;;15.40;99.90;;;;;;6270726;22;20360;-67
2023/09/28 02:54:43;;;;;;;9.40;3.22;;;15.50;99.90;;;;;;6271185;22;20366;-67
2023/09/28 02:57:09;;;;;;;7.40;2.95;;;15.60;99.90;;;;;;6270567;22;20449;-67
2023/09/28 02:59:36;;;;;;;9.45;3.58;;;15.50;99.90;;;;;;6270766;22;20716;-67
2023/09/28 03:02:02;;;;;;;8.13;2.63;;;15.50;99.90;;;;;;6270170;22;20388;-67
2023/09/28 03:04:31;;;;;;;7.53;3.38;;;15.40;99.90;;;;;;6270428;22;20353;-67
2023/09/28 03:06:57;;;;;;;9.38;3.00;;;15.30;99.90;;;;;;6270701;22;20797;-67
2023/09/28 03:09:23;;;;;;;7.57;3.07;;;15.40;99.90;;;;;;6270346;22;20352;-66
2023/09/28 03:11:49;;;;;;;7.53;3.10;;;15.40;99.90;;;;;;6270121;22;20426;-66
2023/09/28 03:14:14;;;;;;;8.90;3.30;;;15.40;99.90;;;;;;6271077;22;20364;-66
2023/09/28 03:16:40;;;;;;;8.40;3.43;;;15.50;99.90;;;;;;6270208;22;20364;-66
2023/09/28 03:19:06;;;;;;;7.30;3.10;;;15.60;99.90;;;;;;6270435;22;20878;-66
2023/09/28 03:21:32;;;;;;;7.30;2.88;;;15.70;99.90;;;;;;6270141;22;20560;-66
2023/09/28 03:23:59;;;;;;;11.40;3.25;;;15.70;99.90;;;;;;6270369;22;20403;-66
2023/09/28 03:26:25;;;;;;;8.47;3.00;;;15.60;99.90;;;;;;6270303;22;20472;-66
2023/09/28 03:28:51;;;;;;;8.73;3.03;;;15.50;99.90;;;;;;6270271;22;20985;-66
2023/09/28 03:31:16;;;;;;;7.07;3.40;;;15.60;99.90;;;;;;6270481;22;20437;-66
2023/09/28 03:33:42;;;;;;;7.57;3.53;;;15.50;99.90;;;;;;6270849;22;20387;-66
2023/09/28 03:36:07;;;;;;;8.50;3.73;;;15.50;99.90;;;;;;6270275;22;20364;-66
2023/09/28 03:38:33;;;;;;;6.10;2.53;;;15.60;99.90;;;;;;6270555;22;20662;-66
2023/09/28 03:40:59;;;;;;;8.88;3.10;;;15.60;99.90;;;;;;6242715;22;20372;-66
2023/09/28 03:43:24;;;;;;;8.00;3.30;;;15.50;99.90;;;;;;6270623;22;20821;-66
2023/09/28 03:45:50;;;;;;;9.97;3.47;;;15.40;1.00;;;;;;6270486;22;20364;-66
2023/09/28 03:48:16;;;;;;;8.10;3.40;;;15.50;1.00;;;;;;6270234;22;20680;-66
2023/09/28 03:50:44;;;;;;;8.02;3.10;;;15.60;1.00;;;;;;6270694;22;20379;-67
2023/09/28 03:53:10;;;;;;;7.07;3.00;;;15.60;99.90;;;;;;6269651;22;20422;-66
2023/09/28 03:55:36;;;;;;;8.00;3.50;;;15.60;99.90;;;;;;6269712;22;20372;-66
2023/09/28 03:58:01;;;;;;;7.95;3.40;;;15.60;99.90;;;;;;6269121;22;20369;-66
2023/09/28 04:00:27;;;;;;;5.83;2.40;;;15.60;99.90;;;;;;6269410;22;20409;-66
2023/09/28 04:02:53;;;;;;;9.40;3.60;;;15.80;99.90;;;;;;6269655;22;20384;-66
2023/09/28 04:05:19;;;;;;;7.68;3.08;;;15.80;99.90;;;;;;6269701;22;20390;-66
2023/09/28 04:07:44;;;;;;;8.20;3.20;;;15.80;99.90;;;;;;6270175;22;20951;-66
2023/09/28 04:10:11;;;;;;;7.35;3.13;;;15.90;99.90;;;;;;6241356;22;20696;-66
2023/09/28 04:12:37;;;;;;;7.85;2.95;;;15.90;99.90;;;;;;6269897;22;20356;-66
2023/09/28 04:15:04;;;;;;;7.97;3.20;;;15.90;99.90;;;;;;6271300;22;20451;-65
2023/09/28 04:17:30;;;;;;;7.05;2.30;;;15.90;99.90;;;;;;6270907;22;20357;-66
2023/09/28 04:19:55;;;;;;;8.23;2.80;;;15.80;99.90;;;;;;6271190;22;20617;-65
2023/09/28 04:22:21;;;;;;;7.30;3.13;;;15.80;99.90;;;;;;6270675;22;20387;-65
2023/09/28 04:24:46;;;;;;;7.10;2.90;;;15.70;99.90;;;;;;6271098;22;20372;-65
2023/09/28 04:27:12;;;;;;;8.17;3.07;;;15.70;99.90;;;;;;6271456;22;20435;-65
2023/09/28 04:29:38;;;;;;;7.13;3.13;;;15.60;99.90;;;;;;6270818;22;20390;-65
2023/09/28 04:32:04;;;;;;;8.55;3.03;;;15.50;99.90;;;;;;6270805;22;20368;-66
2023/09/28 04:34:30;;;;;;;8.23;3.10;;;15.40;99.90;;;;;;6270448;22;20372;-66
2023/09/28 04:36:57;;;;;;;13.35;4.55;;;15.40;99.90;;;;;;6270922;22;20360;-65
2023/09/28 04:39:24;;;;;;;8.57;3.33;;;15.40;1.00;;;;;;6271232;22;20444;-66
2023/09/28 04:41:52;;;;;;;9.05;3.13;;;15.40;99.90;;;;;;6270727;22;20380;-65
2023/09/28 04:44:17;;;;;;;7.30;2.95;;;15.40;1.00;;;;;;6269443;22;20378;-65
2023/09/28 04:46:43;;;;;;;6.97;3.10;;;15.50;99.90;;;;;;6272311;22;20888;-65
2023/09/28 04:49:08;;;;;;;7.90;3.43;;;15.50;99.90;;;;;;6271493;22;20356;-66
2023/09/28 04:51:34;;;;;;;6.30;2.60;;;15.50;99.90;;;;;;6270177;22;20349;-65
2023/09/28 04:54:03;;;;;;;12.02;3.65;;;15.30;99.90;;;;;;6270751;22;20349;-66
2023/09/28 04:56:28;;;;;;;8.80;3.22;;;15.20;1.00;;;;;;6270473;22;20414;-66
2023/09/28 04:58:54;;;;;;;7.03;2.93;;;15.30;1.00;;;;;;6271228;22;20364;-67
2023/09/28 05:01:19;;;;;;;7.67;3.13;;;15.50;1.00;;;;;;6270499;22;20467;-66
2023/09/28 05:03:45;;;;;;;7.93;3.00;;;15.50;99.90;;;;;;6271382;22;20459;-66
2023/09/28 05:06:12;;;;;;;8.95;3.15;;;15.60;99.90;;;;;;6271964;22;20349;-66
2023/09/28 05:08:37;;;;;;;8.50;3.10;;;15.70;99.90;;;;;;6271523;22;20370;-66
2023/09/28 05:11:03;;;;;;;8.93;3.33;;;15.80;99.90;;;;;;6271171;22;20657;-66
2023/09/28 05:13:31;;;;;;;7.10;3.07;;;15.80;99.90;;;;;;6271177;22;20368;-66
2023/09/28 05:15:57;;;;;;;7.90;3.35;;;15.80;99.90;;;;;;6271192;22;21077;-66
2023/09/28 05:18:23;;;;;;;10.05;2.85;;;15.70;99.90;;;;;;6271008;22;20399;-65
2023/09/28 05:20:48;;;;;;;8.48;3.30;;;15.80;99.90;;;;;;6271287;22;20356;-66
2023/09/28 05:23:14;;;;;;;8.50;3.60;;;15.70;99.90;;;;;;6243733;22;20919;-65
2023/09/28 05:25:39;;;;;;;8.30;2.83;;;15.70;99.90;;;;;;6269027;22;20357;-65
2023/09/28 05:28:05;;;;;;;11.17;3.77;;;15.70;99.90;;;;;;6270546;22;21068;-65
2023/09/28 05:30:31;;;;;;;8.63;3.55;;;15.70;99.90;;;;;;6270955;22;20425;-65
2023/09/28 05:32:56;;;;;;;9.00;4.13;;;15.70;99.90;;;;;;6270555;22;20364;-66
2023/09/28 05:35:23;;;;;;;8.40;3.00;;;15.70;99.90;;;;;;6271124;22;20395;-65
2023/09/28 05:37:49;;;;;;;8.10;3.05;;;15.50;99.90;;;;;;6271527;22;20375;-65
2023/09/28 05:40:14;;;;;;;8.65;3.25;;;15.50;99.90;;;;;;6270270;22;20367;-65
2023/09/28 05:42:41;;;;;;;9.40;3.80;;;15.50;99.90;;;;;;6270165;22;20384;-65
2023/09/28 05:45:07;;;;;;;10.90;3.40;;;15.50;99.90;;;;;;6270034;22;20371;-65
2023/09/28 05:47:34;;;;;;;9.85;3.20;;;15.60;99.90;;;;;;6269945;22;20394;-66
2023/09/28 05:50:00;;;;;;;9.38;2.90;;;15.70;99.90;;;;;;6270515;22;20443;-66
2023/09/28 05:52:26;;;;;;;8.18;3.30;;;15.80;99.90;;;;;;6270465;22;20721;-66
2023/09/28 05:54:53;;;;;;;7.63;3.10;;;15.80;99.90;;;;;;6269999;22;20368;-66
2023/09/28 05:57:20;;;;;;;7.80;3.72;;;15.90;99.90;;;;;;6270972;22;20421;-66
2023/09/28 05:59:46;;;;;;;7.43;3.13;;;15.90;99.90;;;;;;6271203;22;20677;-66
2023/09/28 06:02:11;;;;;;;8.50;3.20;;;16.10;99.90;;;;;;6244376;22;20493;-66
2023/09/28 06:04:37;;;;;;;10.48;3.53;;;16.10;99.90;;;;;;6270121;22;20360;-66
2023/09/28 06:07:02;;;;;;;9.87;3.70;;;16.20;99.90;;;;;;6268755;22;20467;-66
2023/09/28 06:09:28;;;;;;;7.97;2.87;;;16.20;99.90;;;;;;6271145;22;20949;-66
2023/09/28 06:11:57;;;;;;;9.53;4.03;;;16.40;99.90;;;;;;6271140;22;20349;-66
2023/09/28 06:14:23;;;;;;;9.70;3.60;;;16.50;99.90;;;;;;6270954;22;20369;-66
2023/09/28 06:16:48;;;;;;;7.05;2.75;;;16.60;1.00;;;;;;6270872;22;20359;-66
2023/09/28 06:19:14;;;;;;;12.67;3.60;;;16.70;99.90;;;;;;6271783;22;20669;-66
2023/09/28 06:21:40;;;;;;;8.75;2.95;;;16.80;99.90;;;;;;6271005;22;20376;-66
2023/09/28 06:24:05;;;;;;;8.32;3.20;;;17.00;99.90;;;;;;6271082;22;20365;-66
2023/09/28 06:26:34;;;;;;;10.53;4.63;;;17.30;99.90;;;;;;6271405;22;20514;-66
2023/09/28 06:29:00;;;;;;;9.57;4.07;;;17.50;99.90;;;;;;6270880;22;20703;-66
2023/09/28 06:31:26;;;;;;;10.40;3.57;;;17.60;99.90;;;;;;6271018;22;20824;-66
2023/09/28 06:33:51;;;;;;;7.90;3.55;;;17.80;1.00;;;;;;6271190;22;20394;-66
2023/09/28 06:36:18;;;;;;;13.57;4.32;;;18.20;1.00;;;;;;6270273;22;20352;-66
2023/09/28 06:38:44;;;;;;;7.93;3.28;;;18.70;99.90;;;;;;6271620;22;20440;-66
2023/09/28 06:41:10;;;;;;;8.40;3.40;;;18.90;1.00;;;;;;6271302;22;20705;-66
2023/09/28 06:43:35;;;;;;;8.90;3.20;;;18.90;1.00;;;;;;6270934;22;20359;-66
2023/09/28 06:46:01;;;;;;;9.37;3.67;;;18.90;1.00;;;;;;6270593;22;20455;-66
2023/09/28 06:48:28;;;;;;;11.98;3.92;;;18.80;1.00;;;;;;6271376;22;20369;-66
2023/09/28 06:50:59;;;;;;;7.70;3.70;;;18.70;1.00;;;;;;6270185;22;20360;-66
2023/09/28 06:53:25;;;;;;;7.63;3.40;;;18.60;1.00;;;;;;6270946;22;20733;-66
2023/09/28 06:55:52;;;;;;;10.38;3.90;;;18.50;1.00;;;;;;6271195;22;20890;-66
2023/09/28 06:58:19;;;;;;;9.40;3.78;;;18.50;1.00;;;;;;6270785;22;20435;-66
2023/09/28 07:00:45;;;;;;;9.45;3.53;;;19.90;99.90;;;;;;6271182;22;20434;-66
2023/09/28 07:03:11;;;;;;;8.70;3.90;;;21.50;12.90;;;;;;6270808;22;20732;-66
2023/09/28 07:05:37;;;;;;;10.07;3.97;;;23.50;1.00;;;;;;6270365;22;20459;-67
2023/09/28 07:08:05;;;;;;;13.50;4.03;;;24.30;99.90;;;;;;6271081;22;20673;-67
2023/09/28 07:10:32;;;;;;;9.85;4.40;;;23.70;99.90;;;;;;6274564;22;20357;-66
2023/09/28 07:13:02;;;;;;;8.35;3.67;;;23.50;99.90;;;;;;6276602;22;20360;-66
2023/09/28 07:15:31;;;;;;;10.00;4.23;;;24.70;99.90;;;;;;6247907;22;20721;-66
2023/09/28 07:17:57;;;;;;;10.02;3.40;;;25.00;99.90;;;;;;6271437;22;20784;-67
2023/09/28 07:20:23;;;;;;;11.40;4.50;;;24.80;99.90;;;;;;6271491;22;20443;-67
2023/09/28 07:22:49;;;;;;;9.73;3.75;;;24.00;99.90;;;;;;6270811;22;20419;-66
2023/09/28 07:25:15;;;;;;;10.40;3.93;;;23.30;99.90;;;;;;6271484;22;20360;-66
2023/09/28 07:27:42;;;;;;;9.20;3.70;;;23.10;99.90;;;;;;6272292;22;20364;-66
2023/09/28 07:30:08;;;;;;;8.65;3.70;;;22.90;99.90;;;;;;6271781;22;20376;-66
2023/09/28 07:32:35;;;;;;;9.38;3.80;;;23.30;99.90;;;;;;6271244;22;20486;-66
2023/09/28 07:35:02;;;;;;;10.00;3.47;;;25.10;99.90;;;;;;6270782;22;20353;-66
2023/09/28 07:37:28;;;;;;;11.10;3.28;;;26.90;99.90;;;;;;6271510;22;20398;-67
2023/09/28 07:39:54;;;;;;;8.95;3.72;;;28.30;99.90;;;;;;6270643;22;20390;-67
2023/09/28 07:42:19;;;;;;;10.60;3.80;;;29.20;99.90;;;;;;6270949;22;20429;-67
2023/09/28 07:44:47;;;;;;;11.53;4.00;;;29.70;99.90;;;;;;6270821;22;20364;-67
2023/09/28 07:47:13;;;;;;;7.50;2.97;;;29.70;99.90;;;;;;6271275;22;20379;-67
2023/09/28 07:49:39;;;;;;;8.90;3.63;;;30.50;99.90;;;;;;6271486;22;20360;-67
2023/09/28 07:52:08;;;;;;;8.25;3.53;;;30.80;99.90;;;;;;6272050;22;20360;-67
2023/09/28 07:54:34;;;;;;;9.90;3.57;;;31.50;99.90;;;;;;6271721;22;20360;-68
2023/09/28 07:56:59;;;;;;;10.90;3.40;;;32.10;99.90;;;;;;6272807;22;20369;-68
2023/09/28 07:59:25;;;;;;;10.30;3.43;;;33.20;99.90;;;;;;6271521;22;20387;-66
2023/09/28 08:01:50;;;;;;;10.40;3.70;;;33.40;99.90;;;;;;6271593;22;20386;-67
2023/09/28 08:04:16;;;;;;;9.70;4.10;;;32.70;99.90;;;;;;6271747;22;20369;-67
2023/09/28 08:06:42;;;;;;;8.35;3.15;;;32.60;99.90;;;;;;6273208;22;20425;-67
2023/09/28 08:09:14;;;;;;;10.18;3.42;;;33.00;99.90;;;;;;6272817;22;20414;-67
2023/09/28 08:11:41;;;;;;;9.18;3.63;;;33.00;99.90;;;;;;6272134;22;20344;-68
2023/09/28 08:14:09;;;;;;;10.37;3.80;;;33.00;99.90;;;;;;6272100;22;20356;-68
2023/09/28 08:16:35;;;;;;;9.50;3.92;;;33.60;99.90;;;;;;6271762;22;20418;-66
2023/09/28 08:19:02;;;;;;;12.20;4.17;;;34.20;99.90;;;;;;6271754;22;20413;-67
2023/09/28 08:21:28;;;;;;;9.48;4.18;;;33.70;99.90;;;;;;6271585;22;20376;-67
2023/09/28 08:23:55;;;;;;;10.82;3.83;;;32.60;99.90;;;;;;6271659;22;20435;-67
2023/09/28 08:26:20;;;;;;;8.43;4.10;;;32.40;99.90;;;;;;6271733;22;20622;-67
2023/09/28 08:28:46;;;;;;;11.10;3.50;;;32.90;99.90;;;;;;6271707;22;20387;-67
2023/09/28 08:31:12;;;;;;;9.40;4.10;;;32.90;99.90;;;;;;6272376;22;20430;-67
2023/09/28 08:33:37;;;;;;;8.40;3.50;;;33.80;99.90;;;;;;6271589;22;20371;-67
2023/09/28 08:36:07;;;;;;;9.63;3.70;;;35.10;99.90;;;;;;6271595;22;20361;-67
2023/09/28 08:38:32;;;;;;;9.30;3.60;;;35.70;99.90;;;;;;6271931;22;20371;-67
2023/09/28 08:41:02;;;;;;;7.47;2.60;;;35.60;99.90;;;;;;6244606;22;20364;-67
2023/09/28 08:43:39;;;;;;;7.63;3.10;;;35.90;99.90;;;;;;6271728;22;20914;-67
2023/09/28 08:46:10;;;;;;;7.53;3.05;;;35.10;99.90;;;;;;6271107;22;20461;-67
2023/09/28 08:48:40;;;;;;;8.98;3.50;;;34.80;99.90;;;;;;6271340;22;20435;-67
2023/09/28 08:51:09;;;;;;;11.63;3.58;;;35.30;99.90;;;;;;6271751;22;20387;-68
2023/09/28 08:53:37;;;;;;;9.50;3.50;;;35.70;99.90;;;;;;6271344;22;20813;-68
2023/09/28 08:56:04;;;;;;;7.90;3.10;;;36.40;99.90;;;;;;6271313;22;20439;-68
2023/09/28 08:58:34;;;;;;;8.60;3.45;;;36.10;99.90;;;;;;6271445;22;20352;-66
2023/09/28 09:01:00;;;;;;;8.18;3.58;;;35.30;99.90;;;;;;6271439;22;20835;-66
2023/09/28 09:03:27;;;;;;;8.10;3.20;;;36.00;99.90;;;;;;6271261;22;20384;-69
2023/09/28 09:05:55;;;;;;;8.98;3.45;;;36.90;99.90;;;;;;6271424;22;20420;-67
2023/09/28 09:08:24;;;;;;;8.85;3.72;;;36.90;99.90;;;;;;6271165;22;20356;-67
2023/09/28 09:10:51;;;;;;;8.50;3.58;;;37.30;99.90;;;;;;6271195;22;20467;-67
2023/09/28 09:13:18;;;;;;;9.50;4.03;;;36.50;99.90;;;;;;6271429;22;20380;-67
2023/09/28 09:15:44;;;;;;;7.38;2.90;;;36.50;99.90;;;;;;6271720;22;20364;-67
2023/09/28 09:18:21;;;;;;;10.20;3.65;;;37.20;99.90;;;;;;6271113;22;20647;-67
2023/09/28 09:20:48;;;;;;;7.60;3.47;;;37.10;99.90;;;;;;6270948;22;20720;-67
2023/09/28 09:23:15;;;;;;;9.80;3.42;;;37.30;99.90;;;;;;6271736;22;20392;-67
2023/09/28 09:25:45;;;;;;;7.65;3.03;;;38.20;99.90;;;;;;6271524;22;20356;-67
2023/09/28 09:28:12;;;;;;;8.10;3.30;;;36.90;99.90;;;;;;6271016;22;20788;-68
2023/09/28 09:30:37;;;;;;;7.90;3.10;;;36.40;99.90;;;;;;6270691;22;20403;-67
2023/09/28 09:33:09;;;;;;;9.30;3.20;;;35.70;99.90;;;;;;6271637;22;20360;-68
2023/09/28 09:35:38;;;;;;;8.93;3.20;;;35.40;99.90;;;;;;6271384;22;20352;-67
2023/09/28 09:38:03;;;;;;;9.38;3.10;;;35.80;99.90;;;;;;6271305;22;20388;-67
2023/09/28 09:40:30;;;;;;;7.77;2.70;;;36.50;99.90;;;;;;6271452;22;20360;-67
2023/09/28 09:43:06;;;;;;;8.70;3.10;;;36.30;99.90;;;;;;6271188;22;20384;-67
2023/09/28 09:45:38;;;;;;;8.47;3.43;;;36.70;99.90;;;;;;6270986;22;20360;-68
2023/09/28 09:48:09;;;;;;;8.20;3.38;;;36.80;99.90;;;;;;6271297;22;20368;-68
2023/09/28 09:50:36;;;;;;;7.70;3.17;;;36.50;99.90;;;;;;6271550;22;20388;-68
2023/09/28 09:53:05;;;;;;;7.55;2.55;;;36.10;99.90;;;;;;6271223;22;20352;-68
2023/09/28 09:55:31;;;;;;;7.03;2.83;;;35.90;99.90;;;;;;6271172;22;20410;-68
2023/09/28 09:58:03;;;;;;;7.15;2.88;;;35.70;99.90;;;;;;6270836;22;20449;-67
2023/09/28 10:00:33;;;;;;;11.80;3.30;;;35.70;99.90;;;;;;6270990;22;20353;-67
2023/09/28 10:03:03;;;;;;;7.50;2.75;;;35.70;99.90;;;;;;6271361;22;20380;-67
2023/09/28 10:05:30;;;;;;;8.93;3.08;;;36.80;99.90;;;;;;6270943;22;20360;-67
2023/09/28 10:07:57;;;;;;;9.40;2.80;;;36.80;99.90;;;;;;6271311;22;20436;-67
2023/09/28 10:10:23;;;;;;;6.78;2.40;;;36.50;99.90;;;;;;6270257;22;20384;-67
2023/09/28 10:12:50;;;;;;;8.68;2.45;;;36.20;99.90;;;;;;6270786;22;20357;-67
2023/09/28 10:15:16;;;;;;;6.82;2.47;;;36.70;99.90;;;;;;6271165;22;20356;-67
2023/09/28 10:17:43;;;;;;;7.50;2.58;;;36.50;99.90;;;;;;6271775;22;20377;-67
2023/09/28 10:20:08;;;;;;;7.47;2.05;;;36.40;99.90;;;;;;6270599;22;20871;-67
2023/09/28 10:22:35;;;;;;;7.45;2.40;;;36.40;99.90;;;;;;6270580;22;20410;-67
2023/09/28 10:25:00;;;;;;;6.55;2.20;;;35.90;99.90;;;;;;6270848;22;20383;-68
2023/09/28 10:27:26;;;;;;;7.07;2.20;;;36.00;99.90;;;;;;6270392;22;20665;-67
2023/09/28 10:30:20;;;;;;;7.00;2.40;;;36.10;99.90;;;;;;6270437;22;20376;-67
2023/09/28 10:32:46;;;;;;;7.13;2.20;;;35.50;99.90;;;;;;6271302;22;20357;-67
2023/09/28 10:35:20;;;;;;;7.13;2.00;;;34.60;99.90;;;;;;6271544;22;20364;-67
2023/09/28 10:38:15;;;;;;;7.50;2.30;;;34.80;99.90;;;;;;6270885;22;20364;-67
2023/09/28 10:40:42;;;;;;;6.13;2.08;;;35.20;99.90;;;;;;6271356;22;20689;-68
2023/09/28 10:43:11;;;;;;;7.13;2.30;;;35.40;99.90;;;;;;6270159;22;20387;-68
2023/09/28 10:45:37;;;;;;;7.53;2.83;;;35.00;99.90;;;;;;6270615;22;20682;-68
2023/09/28 10:48:09;;;;;;;6.70;2.10;;;34.90;99.90;;;;;;6271036;22;20447;-68
2023/09/28 10:50:38;;;;;;;7.40;2.30;;;35.00;99.90;;;;;;6270396;22;20740;-68
2023/09/28 10:53:04;;;;;;;7.63;2.28;;;34.50;99.90;;;;;;6270624;22;20410;-66
2023/09/28 10:55:29;;;;;;;7.97;2.30;;;34.30;99.90;;;;;;6270953;22;20368;-67
2023/09/28 10:58:02;;;;;;;7.10;1.90;;;34.50;99.90;;;;;;6270279;22;20364;-67
2023/09/28 11:00:27;;;;;;;8.88;2.20;;;34.60;99.90;;;;;;6271181;22;20443;-67
2023/09/28 11:02:53;;;;;;;6.60;2.23;;;35.30;99.90;;;;;;6270426;22;20467;-67
2023/09/28 11:05:19;;;;;;;7.77;2.27;;;35.30;99.90;;;;;;6270708;22;20357;-67
2023/09/28 11:07:48;;;;;;;7.60;2.20;;;35.70;99.90;;;;;;6270870;22;20842;-67
2023/09/28 11:10:14;;;;;;;7.80;2.00;;;35.40;99.90;;;;;;6271140;22;20847;-67
2023/09/28 11:12:41;;;;;;;6.30;2.00;;;35.10;99.90;;;;;;6270106;22;20692;-67
2023/09/28 11:15:09;;;;;;;6.43;2.00;;;34.40;99.90;;;;;;6270345;22;20443;-67
2023/09/28 11:17:35;;;;;;;8.07;2.60;;;33.30;99.90;;;;;;6270380;22;20844;-67
2023/09/28 11:20:01;;;;;;;9.00;2.60;;;33.00;99.90;;;;;;6270333;22;20356;-67
2023/09/28 11:22:30;;;;;;;6.40;1.87;;;32.60;99.90;;;;;;6270566;22;20488;-67
2023/09/28 11:24:57;;;;;;;8.47;2.30;;;32.30;99.90;;;;;;6270973;22;20356;-67
2023/09/28 11:27:24;;;;;;;7.63;2.30;;;31.70;99.90;;;;;;6270884;22;20371;-66
2023/09/28 11:29:56;;;;;;;6.87;2.03;;;31.60;99.90;;;;;;6270089;22;20375;-67
2023/09/28 11:32:21;;;;;;;7.20;2.30;;;31.70;99.90;;;;;;6270039;22;20402;-67
2023/09/28 11:34:47;;;;;;;6.80;2.30;;;31.70;99.90;;;;;;6270309;22;20352;-67
2023/09/28 11:37:16;;;;;;;7.23;2.30;;;32.00;99.90;;;;;;6270886;22;20769;-66
2023/09/28 11:39:42;;;;;;;7.55;2.40;;;32.20;99.90;;;;;;6270849;22;20891;-66
2023/09/28 11:42:08;;;;;;;7.15;2.20;;;32.20;99.90;;;;;;6270453;22;20534;-67
2023/09/28 11:44:34;;;;;;;8.10;2.30;;;31.80;99.90;;;;;;6270249;22;20435;-67
2023/09/28 11:47:00;;;;;;;7.05;2.30;;;31.80;99.90;;;;;;6269957;22;20422;-67
2023/09/28 11:49:26;;;;;;;7.03;2.20;;;31.60;99.90;;;;;;6270555;22;20487;-67
2023/09/28 11:51:53;;;;;;;6.35;1.60;;;31.80;99.90;;;;;;6270160;22;20375;-67
2023/09/28 11:54:21;;;;;;;6.70;2.20;;;31.80;99.90;;;;;;6268823;22;20360;-67
2023/09/28 11:56:46;;;;;;;8.40;2.55;;;31.60;99.90;;;;;;6270154;22;20386;-67
2023/09/28 11:59:16;;;;;;;8.23;2.50;;;31.40;99.90;;;;;;6270965;22;20372;-67
2023/09/28 12:01:53;;;;;;;8.40;2.20;;;31.00;99.90;;;;;;6270727;22;20391;-67
2023/09/28 12:04:19;;;;;;;10.23;2.17;;;30.80;99.90;;;;;;6270095;22;20758;-67
2023/09/28 12:06:45;;;;;;;6.43;1.90;;;30.90;99.90;;;;;;6270941;22;20468;-67
2023/09/28 12:09:15;;;;;;;7.18;2.38;;;30.90;99.90;;;;;;6270562;22;20399;-67
2023/09/28 12:11:41;;;;;;;6.43;2.17;;;30.70;99.90;;;;;;6269739;22;20813;-66
2023/09/28 12:14:07;;;;;;;6.40;2.20;;;30.70;99.90;;;;;;6270833;22;20360;-66
2023/09/28 12:16:33;;;;;;;7.07;1.97;;;31.00;99.90;;;;;;6269770;22;20356;-67
2023/09/28 12:18:58;;;;;;;9.37;2.93;;;31.00;99.90;;;;;;6269682;22;20367;-67
2023/09/28 12:21:24;;;;;;;7.90;2.47;;;31.10;99.90;;;;;;6269993;22;20368;-67
2023/09/28 12:23:50;;;;;;;7.10;2.28;;;31.30;99.90;;;;;;6269193;22;20358;-67
2023/09/28 12:26:16;;;;;;;8.25;2.40;;;31.30;99.90;;;;;;6269921;22;20360;-68
2023/09/28 12:28:41;;;;;;;6.80;2.30;;;31.30;99.90;;;;;;6270559;22;20863;-67
2023/09/28 12:31:08;;;;;;;6.75;2.00;;;31.40;99.90;;;;;;6270080;22;20470;-67
2023/09/28 12:33:37;;;;;;;7.00;2.10;;;31.30;99.90;;;;;;6270056;22;20356;-67
2023/09/28 12:36:03;;;;;;;7.93;2.33;;;31.40;99.90;;;;;;6271666;22;20375;-67
2023/09/28 12:38:29;;;;;;;8.00;2.40;;;31.60;99.90;;;;;;6270901;22;20406;-68
2023/09/28 12:40:55;;;;;;;7.47;2.37;;;31.20;99.90;;;;;;6271109;22;20357;-68
2023/09/28 12:43:21;;;;;;;6.95;2.33;;;31.20;99.90;;;;;;6271065;22;20768;-66
2023/09/28 12:45:46;;;;;;;6.78;2.22;;;31.10;99.90;;;;;;6271188;22;20403;-66
2023/09/28 12:48:18;;;;;;;8.48;2.50;;;31.30;99.90;;;;;;6271983;22;20403;-67
2023/09/28 12:50:45;;;;;;;7.72;3.13;;;31.40;99.90;;;;;;6272017;22;20360;-67